sensor_id;sensor_type;location;lat;lon;timestamp;temperature;humidity
80577;DHT22;69937;52.420;10.538;2024-03-08T00:00:54;1.30;64.10
80577;DHT22;69937;52.420;10.538;2024-03-08T00:05:55;1.30;64.20
80577;DHT22;69937;52.420;10.538;2024-03-08T00:10:56;1.30;64.10
80577;DHT22;69937;52.420;10.538;2024-03-08T00:15:57;1.20;64.00
80577;DHT22;69937;52.420;10.538;2024-03-08T00:20:58;1.20;64.10
80577;DHT22;69937;52.420;10.538;2024-03-08T00:25:58;1.10;64.30
80577;DHT22;69937;52.420;10.538;2024-03-08T00:30:59;1.10;64.30
80577;DHT22;69937;52.420;10.538;2024-03-08T00:35:59;1.00;64.40
80577;DHT22;69937;52.420;10.538;2024-03-08T00:41:00;1.00;64.50
80577;DHT22;69937;52.420;10.538;2024-03-08T00:46:00;1.00;64.70
80577;DHT22;69937;52.420;10.538;2024-03-08T00:51:01;1.00;64.70
80577;DHT22;69937;52.420;10.538;2024-03-08T00:56:02;0.80;65.00
80577;DHT22;69937;52.420;10.538;2024-03-08T01:01:04;0.80;65.40
80577;DHT22;69937;52.420;10.538;2024-03-08T01:06:05;0.60;65.80
80577;DHT22;69937;52.420;10.538;2024-03-08T01:11:06;0.70;65.70
80577;DHT22;69937;52.420;10.538;2024-03-08T01:16:06;0.60;65.80
80577;DHT22;69937;52.420;10.538;2024-03-08T01:21:07;0.60;65.80
80577;DHT22;69937;52.420;10.538;2024-03-08T01:26:08;0.50;66.00
80577;DHT22;69937;52.420;10.538;2024-03-08T01:31:08;0.50;66.00
80577;DHT22;69937;52.420;10.538;2024-03-08T01:36:09;0.50;66.00
80577;DHT22;69937;52.420;10.538;2024-03-08T01:41:09;0.50;66.30
80577;DHT22;69937;52.420;10.538;2024-03-08T01:46:12;0.50;66.10
80577;DHT22;69937;52.420;10.538;2024-03-08T01:51:15;0.40;66.40
80577;DHT22;69937;52.420;10.538;2024-03-08T01:56:16;0.40;66.50
80577;DHT22;69937;52.420;10.538;2024-03-08T02:01:18;0.30;66.80
80577;DHT22;69937;52.420;10.538;2024-03-08T02:06:19;0.20;66.90
80577;DHT22;69937;52.420;10.538;2024-03-08T02:11:20;0.10;67.30
80577;DHT22;69937;52.420;10.538;2024-03-08T02:16:22;0.00;67.30
80577;DHT22;69937;52.420;10.538;2024-03-08T02:21:23;-0.10;68.20
80577;DHT22;69937;52.420;10.538;2024-03-08T02:26:24;-0.10;68.50
80577;DHT22;69937;52.420;10.538;2024-03-08T02:31:25;-0.20;68.80
80577;DHT22;69937;52.420;10.538;2024-03-08T02:36:25;-0.30;69.00
80577;DHT22;69937;52.420;10.538;2024-03-08T02:41:26;-0.30;69.40
80577;DHT22;69937;52.420;10.538;2024-03-08T02:46:27;-0.40;69.60
80577;DHT22;69937;52.420;10.538;2024-03-08T02:51:29;-0.40;69.60
80577;DHT22;69937;52.420;10.538;2024-03-08T02:56:29;-0.50;70.10
80577;DHT22;69937;52.420;10.538;2024-03-08T03:01:30;-0.50;70.20
80577;DHT22;69937;52.420;10.538;2024-03-08T03:06:32;-0.50;70.30
80577;DHT22;69937;52.420;10.538;2024-03-08T03:11:34;-0.50;70.50
80577;DHT22;69937;52.420;10.538;2024-03-08T03:16:34;-0.50;70.40
80577;DHT22;69937;52.420;10.538;2024-03-08T03:21:35;-0.60;70.50
80577;DHT22;69937;52.420;10.538;2024-03-08T03:26:37;-0.60;70.70
80577;DHT22;69937;52.420;10.538;2024-03-08T03:31:39;-0.60;70.70
80577;DHT22;69937;52.420;10.538;2024-03-08T03:36:40;-0.70;71.10
80577;DHT22;69937;52.420;10.538;2024-03-08T03:41:43;-0.70;71.20
80577;DHT22;69937;52.420;10.538;2024-03-08T03:46:46;-0.70;71.40
80577;DHT22;69937;52.420;10.538;2024-03-08T03:51:47;-0.70;71.70
80577;DHT22;69937;52.420;10.538;2024-03-08T03:56:47;-0.70;71.60
80577;DHT22;69937;52.420;10.538;2024-03-08T04:01:51;-0.70;71.40
80577;DHT22;69937;52.420;10.538;2024-03-08T04:06:52;-0.70;71.40
80577;DHT22;69937;52.420;10.538;2024-03-08T04:11:53;-0.70;71.20
80577;DHT22;69937;52.420;10.538;2024-03-08T04:16:55;-0.60;71.10
80577;DHT22;69937;52.420;10.538;2024-03-08T04:21:57;-0.60;71.00
80577;DHT22;69937;52.420;10.538;2024-03-08T04:26:57;-0.60;71.00
80577;DHT22;69937;52.420;10.538;2024-03-08T04:31:59;-0.70;70.80
80577;DHT22;69937;52.420;10.538;2024-03-08T04:37:00;-0.70;71.10
80577;DHT22;69937;52.420;10.538;2024-03-08T04:42:02;-0.70;71.10
80577;DHT22;69937;52.420;10.538;2024-03-08T04:47:04;-0.70;71.20
80577;DHT22;69937;52.420;10.538;2024-03-08T04:52:06;-0.70;71.20
80577;DHT22;69937;52.420;10.538;2024-03-08T04:57:07;-0.70;71.20
80577;DHT22;69937;52.420;10.538;2024-03-08T05:02:08;-0.70;71.20
80577;DHT22;69937;52.420;10.538;2024-03-08T05:07:08;-0.80;71.40
80577;DHT22;69937;52.420;10.538;2024-03-08T05:12:09;-0.80;71.30
80577;DHT22;69937;52.420;10.538;2024-03-08T05:17:09;-0.90;71.50
80577;DHT22;69937;52.420;10.538;2024-03-08T05:22:10;-0.90;71.50
80577;DHT22;69937;52.420;10.538;2024-03-08T05:27:11;-0.90;71.50
80577;DHT22;69937;52.420;10.538;2024-03-08T05:32:13;-1.00;71.50
80577;DHT22;69937;52.420;10.538;2024-03-08T05:37:14;-1.00;71.80
80577;DHT22;69937;52.420;10.538;2024-03-08T05:42:15;-1.10;71.90
80577;DHT22;69937;52.420;10.538;2024-03-08T05:47:15;-1.10;72.00
80577;DHT22;69937;52.420;10.538;2024-03-08T05:57:29;-1.10;72.20
80577;DHT22;69937;52.420;10.538;2024-03-08T06:02:30;-1.20;72.30
80577;DHT22;69937;52.420;10.538;2024-03-08T06:07:30;-1.20;72.40
80577;DHT22;69937;52.420;10.538;2024-03-08T06:12:33;-1.20;72.50
80577;DHT22;69937;52.420;10.538;2024-03-08T06:17:34;-1.20;72.80
80577;DHT22;69937;52.420;10.538;2024-03-08T06:22:35;-1.20;72.60
80577;DHT22;69937;52.420;10.538;2024-03-08T06:27:35;-1.10;72.70
80577;DHT22;69937;52.420;10.538;2024-03-08T06:32:36;-1.10;72.80
80577;DHT22;69937;52.420;10.538;2024-03-08T06:37:37;-1.10;72.50
80577;DHT22;69937;52.420;10.538;2024-03-08T06:42:38;-1.00;72.40
80577;DHT22;69937;52.420;10.538;2024-03-08T06:47:39;-0.90;72.30
80577;DHT22;69937;52.420;10.538;2024-03-08T06:52:42;-0.80;72.30
80577;DHT22;69937;52.420;10.538;2024-03-08T06:57:48;-0.70;72.00
80577;DHT22;69937;52.420;10.538;2024-03-08T07:02:48;-0.50;71.50
80577;DHT22;69937;52.420;10.538;2024-03-08T07:07:49;-0.40;71.20
80577;DHT22;69937;52.420;10.538;2024-03-08T07:12:53;-0.20;70.90
80577;DHT22;69937;52.420;10.538;2024-03-08T07:17:53;-0.10;70.30
80577;DHT22;69937;52.420;10.538;2024-03-08T07:22:54;0.00;69.60
80577;DHT22;69937;52.420;10.538;2024-03-08T07:27:55;0.20;69.00
80577;DHT22;69937;52.420;10.538;2024-03-08T07:32:56;0.50;68.90
80577;DHT22;69937;52.420;10.538;2024-03-08T07:37:57;0.70;68.10
80577;DHT22;69937;52.420;10.538;2024-03-08T07:42:58;1.00;67.50
80577;DHT22;69937;52.420;10.538;2024-03-08T07:47:59;1.20;66.60
80577;DHT22;69937;52.420;10.538;2024-03-08T07:52:59;1.40;66.10
80577;DHT22;69937;52.420;10.538;2024-03-08T07:58:00;1.60;65.30
80577;DHT22;69937;52.420;10.538;2024-03-08T08:03:01;1.90;65.10
80577;DHT22;69937;52.420;10.538;2024-03-08T08:08:02;2.20;64.70
80577;DHT22;69937;52.420;10.538;2024-03-08T08:13:06;2.50;63.70
80577;DHT22;69937;52.420;10.538;2024-03-08T08:18:07;2.70;63.20
80577;DHT22;69937;52.420;10.538;2024-03-08T08:23:10;3.00;62.30
80577;DHT22;69937;52.420;10.538;2024-03-08T08:28:12;3.30;62.20
80577;DHT22;69937;52.420;10.538;2024-03-08T08:33:13;3.50;61.00
80577;DHT22;69937;52.420;10.538;2024-03-08T08:38:13;3.90;60.90
80577;DHT22;69937;52.420;10.538;2024-03-08T08:43:14;4.10;59.30
80577;DHT22;69937;52.420;10.538;2024-03-08T08:48:14;4.30;60.00
80577;DHT22;69937;52.420;10.538;2024-03-08T08:53:16;4.70;58.20
80577;DHT22;69937;52.420;10.538;2024-03-08T08:58:17;4.70;58.40
80577;DHT22;69937;52.420;10.538;2024-03-08T09:03:18;4.90;58.10
80577;DHT22;69937;52.420;10.538;2024-03-08T09:08:19;5.10;57.60
80577;DHT22;69937;52.420;10.538;2024-03-08T09:13:20;5.30;57.60
80577;DHT22;69937;52.420;10.538;2024-03-08T09:18:20;5.50;56.40
80577;DHT22;69937;52.420;10.538;2024-03-08T09:23:21;5.80;55.90
80577;DHT22;69937;52.420;10.538;2024-03-08T09:28:22;6.00;55.60
80577;DHT22;69937;52.420;10.538;2024-03-08T09:33:22;6.20;55.00
80577;DHT22;69937;52.420;10.538;2024-03-08T09:38:23;6.70;54.40
80577;DHT22;69937;52.420;10.538;2024-03-08T09:43:25;7.10;54.00
80577;DHT22;69937;52.420;10.538;2024-03-08T09:48:26;7.20;53.40
80577;DHT22;69937;52.420;10.538;2024-03-08T09:53:27;7.40;53.70
80577;DHT22;69937;52.420;10.538;2024-03-08T09:58:27;7.60;52.60
80577;DHT22;69937;52.420;10.538;2024-03-08T10:03:28;7.90;52.70
80577;DHT22;69937;52.420;10.538;2024-03-08T10:08:29;8.20;52.50
80577;DHT22;69937;52.420;10.538;2024-03-08T10:13:31;8.20;52.50
80577;DHT22;69937;52.420;10.538;2024-03-08T10:18:33;8.60;52.30
80577;DHT22;69937;52.420;10.538;2024-03-08T10:23:33;9.00;50.90
80577;DHT22;69937;52.420;10.538;2024-03-08T10:28:34;9.00;50.70
80577;DHT22;69937;52.420;10.538;2024-03-08T10:33:34;9.20;51.20
80577;DHT22;69937;52.420;10.538;2024-03-08T10:38:37;10.00;49.00
80577;DHT22;69937;52.420;10.538;2024-03-08T10:44:10;10.30;48.90
80577;DHT22;69937;52.420;10.538;2024-03-08T10:54:45;10.40;48.20
80577;DHT22;69937;52.420;10.538;2024-03-08T10:59:48;10.10;48.80
80577;DHT22;69937;52.420;10.538;2024-03-08T11:04:50;9.90;48.70
80577;DHT22;69937;52.420;10.538;2024-03-08T11:09:51;10.00;49.80
80577;DHT22;69937;52.420;10.538;2024-03-08T11:14:53;10.30;48.20
80577;DHT22;69937;52.420;10.538;2024-03-08T11:19:58;10.20;48.50
80577;DHT22;69937;52.420;10.538;2024-03-08T11:25:03;10.20;49.10
80577;DHT22;69937;52.420;10.538;2024-03-08T11:30:10;10.60;48.70
80577;DHT22;69937;52.420;10.538;2024-03-08T11:35:21;10.70;48.20
80577;DHT22;69937;52.420;10.538;2024-03-08T11:40:23;11.10;47.80
80577;DHT22;69937;52.420;10.538;2024-03-08T11:45:24;11.10;47.10
80577;DHT22;69937;52.420;10.538;2024-03-08T11:50:25;11.20;47.30
80577;DHT22;69937;52.420;10.538;2024-03-08T11:55:26;11.50;46.40
80577;DHT22;69937;52.420;10.538;2024-03-08T12:00:27;11.40;47.10
80577;DHT22;69937;52.420;10.538;2024-03-08T12:05:33;11.90;46.40
80577;DHT22;69937;52.420;10.538;2024-03-08T12:10:34;12.00;45.10
80577;DHT22;69937;52.420;10.538;2024-03-08T12:15:35;12.10;46.00
80577;DHT22;69937;52.420;10.538;2024-03-08T12:20:36;12.10;45.20
80577;DHT22;69937;52.420;10.538;2024-03-08T12:25:39;12.50;45.20
80577;DHT22;69937;52.420;10.538;2024-03-08T12:30:51;12.50;44.20
80577;DHT22;69937;52.420;10.538;2024-03-08T12:35:54;12.80;43.90
80577;DHT22;69937;52.420;10.538;2024-03-08T12:40:58;12.80;44.70
80577;DHT22;69937;52.420;10.538;2024-03-08T12:45:59;12.70;44.40
80577;DHT22;69937;52.420;10.538;2024-03-08T12:50:59;13.00;45.40
80577;DHT22;69937;52.420;10.538;2024-03-08T12:56:02;13.30;44.40
80577;DHT22;69937;52.420;10.538;2024-03-08T13:01:04;13.50;42.60
80577;DHT22;69937;52.420;10.538;2024-03-08T13:06:08;13.90;42.90
80577;DHT22;69937;52.420;10.538;2024-03-08T13:11:09;13.50;42.00
80577;DHT22;69937;52.420;10.538;2024-03-08T13:16:13;13.60;42.50
80577;DHT22;69937;52.420;10.538;2024-03-08T13:21:18;13.60;42.80
80577;DHT22;69937;52.420;10.538;2024-03-08T13:26:20;13.20;42.50
80577;DHT22;69937;52.420;10.538;2024-03-08T13:31:21;13.50;42.30
80577;DHT22;69937;52.420;10.538;2024-03-08T13:36:22;14.10;42.10
80577;DHT22;69937;52.420;10.538;2024-03-08T13:41:25;14.80;40.70
80577;DHT22;69937;52.420;10.538;2024-03-08T13:46:25;15.70;40.10
80577;DHT22;69937;52.420;10.538;2024-03-08T13:51:27;15.60;39.40
80577;DHT22;69937;52.420;10.538;2024-03-08T13:56:28;15.60;39.80
80577;DHT22;69937;52.420;10.538;2024-03-08T14:01:31;16.50;38.90
80577;DHT22;69937;52.420;10.538;2024-03-08T14:06:32;16.60;39.10
80577;DHT22;69937;52.420;10.538;2024-03-08T14:11:33;16.00;39.90
80577;DHT22;69937;52.420;10.538;2024-03-08T14:16:33;15.50;40.20
80577;DHT22;69937;52.420;10.538;2024-03-08T14:21:36;15.50;40.60
80577;DHT22;69937;52.420;10.538;2024-03-08T14:26:39;15.30;39.10
80577;DHT22;69937;52.420;10.538;2024-03-08T14:31:40;15.00;39.60
80577;DHT22;69937;52.420;10.538;2024-03-08T14:36:43;14.80;40.40
80577;DHT22;69937;52.420;10.538;2024-03-08T14:41:44;14.00;40.60
80577;DHT22;69937;52.420;10.538;2024-03-08T14:46:45;14.00;40.80
80577;DHT22;69937;52.420;10.538;2024-03-08T14:51:46;13.60;40.90
80577;DHT22;69937;52.420;10.538;2024-03-08T14:56:47;13.30;41.10
80577;DHT22;69937;52.420;10.538;2024-03-08T15:01:47;13.50;41.60
80577;DHT22;69937;52.420;10.538;2024-03-08T15:06:48;13.10;41.90
80577;DHT22;69937;52.420;10.538;2024-03-08T15:11:49;13.20;42.20
80577;DHT22;69937;52.420;10.538;2024-03-08T15:16:50;13.50;41.40
80577;DHT22;69937;52.420;10.538;2024-03-08T15:21:51;13.20;40.80
80577;DHT22;69937;52.420;10.538;2024-03-08T15:26:55;12.90;41.60
80577;DHT22;69937;52.420;10.538;2024-03-08T15:31:57;12.50;41.70
80577;DHT22;69937;52.420;10.538;2024-03-08T15:36:58;12.30;42.40
80577;DHT22;69937;52.420;10.538;2024-03-08T15:42:02;12.50;42.20
80577;DHT22;69937;52.420;10.538;2024-03-08T15:47:03;12.30;42.60
80577;DHT22;69937;52.420;10.538;2024-03-08T15:52:04;11.70;43.30
80577;DHT22;69937;52.420;10.538;2024-03-08T15:57:06;11.50;44.50
80577;DHT22;69937;52.420;10.538;2024-03-08T16:02:13;11.50;44.00
80577;DHT22;69937;52.420;10.538;2024-03-08T16:07:13;11.30;44.60
80577;DHT22;69937;52.420;10.538;2024-03-08T16:12:16;11.10;44.90
80577;DHT22;69937;52.420;10.538;2024-03-08T16:17:16;10.90;45.10
80577;DHT22;69937;52.420;10.538;2024-03-08T16:22:17;10.90;45.70
80577;DHT22;69937;52.420;10.538;2024-03-08T16:27:18;10.40;46.40
80577;DHT22;69937;52.420;10.538;2024-03-08T16:32:19;9.90;47.00
80577;DHT22;69937;52.420;10.538;2024-03-08T16:37:20;9.60;47.70
80577;DHT22;69937;52.420;10.538;2024-03-08T16:42:22;9.20;48.30
80577;DHT22;69937;52.420;10.538;2024-03-08T16:47:23;9.00;48.30
80577;DHT22;69937;52.420;10.538;2024-03-08T16:52:24;8.70;48.40
80577;DHT22;69937;52.420;10.538;2024-03-08T16:57:26;8.50;48.80
80577;DHT22;69937;52.420;10.538;2024-03-08T17:02:27;8.30;48.90
80577;DHT22;69937;52.420;10.538;2024-03-08T17:07:27;8.10;49.20
80577;DHT22;69937;52.420;10.538;2024-03-08T17:12:30;8.00;49.10
80577;DHT22;69937;52.420;10.538;2024-03-08T17:17:31;7.80;49.20
80577;DHT22;69937;52.420;10.538;2024-03-08T17:22:32;7.80;49.80
80577;DHT22;69937;52.420;10.538;2024-03-08T17:27:33;7.60;49.90
80577;DHT22;69937;52.420;10.538;2024-03-08T17:32:36;7.50;49.80
80577;DHT22;69937;52.420;10.538;2024-03-08T17:37:38;7.40;50.20
80577;DHT22;69937;52.420;10.538;2024-03-08T17:42:39;7.20;50.60
80577;DHT22;69937;52.420;10.538;2024-03-08T17:47:41;7.20;50.80
80577;DHT22;69937;52.420;10.538;2024-03-08T17:52:42;7.10;51.20
80577;DHT22;69937;52.420;10.538;2024-03-08T17:57:47;7.00;51.30
80577;DHT22;69937;52.420;10.538;2024-03-08T18:02:48;6.90;51.50
80577;DHT22;69937;52.420;10.538;2024-03-08T18:07:52;6.80;51.70
80577;DHT22;69937;52.420;10.538;2024-03-08T18:12:54;6.70;51.70
80577;DHT22;69937;52.420;10.538;2024-03-08T18:18:00;6.60;52.20
80577;DHT22;69937;52.420;10.538;2024-03-08T18:23:02;6.50;52.30
80577;DHT22;69937;52.420;10.538;2024-03-08T18:28:04;6.50;52.70
80577;DHT22;69937;52.420;10.538;2024-03-08T18:33:09;6.40;52.70
80577;DHT22;69937;52.420;10.538;2024-03-08T18:38:12;6.30;52.70
80577;DHT22;69937;52.420;10.538;2024-03-08T18:43:13;6.30;52.90
80577;DHT22;69937;52.420;10.538;2024-03-08T18:48:14;6.20;52.80
80577;DHT22;69937;52.420;10.538;2024-03-08T18:53:14;6.10;52.70
80577;DHT22;69937;52.420;10.538;2024-03-08T18:58:15;6.10;52.70
80577;DHT22;69937;52.420;10.538;2024-03-08T19:03:17;6.00;52.70
80577;DHT22;69937;52.420;10.538;2024-03-08T19:08:18;5.90;53.10
80577;DHT22;69937;52.420;10.538;2024-03-08T19:13:19;5.80;53.10
80577;DHT22;69937;52.420;10.538;2024-03-08T19:18:21;5.70;53.20
80577;DHT22;69937;52.420;10.538;2024-03-08T19:23:21;5.70;53.20
80577;DHT22;69937;52.420;10.538;2024-03-08T19:28:23;5.70;53.40
80577;DHT22;69937;52.420;10.538;2024-03-08T19:33:23;5.60;53.60
80577;DHT22;69937;52.420;10.538;2024-03-08T19:38:24;5.50;53.70
80577;DHT22;69937;52.420;10.538;2024-03-08T19:43:27;5.50;53.90
80577;DHT22;69937;52.420;10.538;2024-03-08T19:48:28;5.50;54.00
80577;DHT22;69937;52.420;10.538;2024-03-08T19:53:28;5.30;54.30
80577;DHT22;69937;52.420;10.538;2024-03-08T19:58:29;5.30;54.60
80577;DHT22;69937;52.420;10.538;2024-03-08T20:03:30;5.20;54.80
80577;DHT22;69937;52.420;10.538;2024-03-08T20:08:32;5.10;55.20
80577;DHT22;69937;52.420;10.538;2024-03-08T20:13:34;5.00;55.10
80577;DHT22;69937;52.420;10.538;2024-03-08T20:18:35;5.00;55.20
80577;DHT22;69937;52.420;10.538;2024-03-08T20:23:36;5.00;55.40
80577;DHT22;69937;52.420;10.538;2024-03-08T20:28:37;4.90;55.60
80577;DHT22;69937;52.420;10.538;2024-03-08T20:33:39;4.80;56.20
80577;DHT22;69937;52.420;10.538;2024-03-08T20:38:42;4.70;56.40
80577;DHT22;69937;52.420;10.538;2024-03-08T20:43:43;4.60;56.60
80577;DHT22;69937;52.420;10.538;2024-03-08T20:48:44;4.50;56.90
80577;DHT22;69937;52.420;10.538;2024-03-08T20:53:46;4.40;57.40
80577;DHT22;69937;52.420;10.538;2024-03-08T20:58:46;4.40;57.40
80577;DHT22;69937;52.420;10.538;2024-03-08T21:03:48;4.30;57.50
80577;DHT22;69937;52.420;10.538;2024-03-08T21:08:49;4.30;57.70
80577;DHT22;69937;52.420;10.538;2024-03-08T21:13:50;4.30;58.00
80577;DHT22;69937;52.420;10.538;2024-03-08T21:18:50;4.20;58.40
80577;DHT22;69937;52.420;10.538;2024-03-08T21:23:53;4.20;58.70
80577;DHT22;69937;52.420;10.538;2024-03-08T21:28:54;4.10;59.00
80577;DHT22;69937;52.420;10.538;2024-03-08T21:33:55;4.10;59.20
80577;DHT22;69937;52.420;10.538;2024-03-08T21:38:56;4.10;59.60
80577;DHT22;69937;52.420;10.538;2024-03-08T21:43:56;4.00;59.90
80577;DHT22;69937;52.420;10.538;2024-03-08T21:48:57;4.00;60.20
80577;DHT22;69937;52.420;10.538;2024-03-08T21:53:57;3.90;60.60
80577;DHT22;69937;52.420;10.538;2024-03-08T21:58:58;3.90;60.70
80577;DHT22;69937;52.420;10.538;2024-03-08T22:04:01;3.90;61.10
80577;DHT22;69937;52.420;10.538;2024-03-08T22:09:01;3.90;61.30
80577;DHT22;69937;52.420;10.538;2024-03-08T22:14:06;3.80;61.50
80577;DHT22;69937;52.420;10.538;2024-03-08T22:19:08;3.80;61.90
80577;DHT22;69937;52.420;10.538;2024-03-08T22:24:11;3.70;62.20
80577;DHT22;69937;52.420;10.538;2024-03-08T22:29:11;3.60;62.70
80577;DHT22;69937;52.420;10.538;2024-03-08T22:34:12;3.60;63.20
80577;DHT22;69937;52.420;10.538;2024-03-08T22:39:13;3.50;63.70
80577;DHT22;69937;52.420;10.538;2024-03-08T22:44:14;3.50;63.70
80577;DHT22;69937;52.420;10.538;2024-03-08T22:49:14;3.50;63.80
80577;DHT22;69937;52.420;10.538;2024-03-08T22:54:15;3.50;64.00
80577;DHT22;69937;52.420;10.538;2024-03-08T22:59:18;3.40;64.20
80577;DHT22;69937;52.420;10.538;2024-03-08T23:04:21;3.50;64.20
80577;DHT22;69937;52.420;10.538;2024-03-08T23:09:23;3.40;64.40
80577;DHT22;69937;52.420;10.538;2024-03-08T23:14:24;3.30;64.70
80577;DHT22;69937;52.420;10.538;2024-03-08T23:19:25;3.30;64.80
80577;DHT22;69937;52.420;10.538;2024-03-08T23:24:30;3.30;65.00
80577;DHT22;69937;52.420;10.538;2024-03-08T23:29:31;3.30;65.00
80577;DHT22;69937;52.420;10.538;2024-03-08T23:34:32;3.30;65.20
80577;DHT22;69937;52.420;10.538;2024-03-08T23:39:32;3.30;65.20
80577;DHT22;69937;52.420;10.538;2024-03-08T23:44:33;3.30;65.30
80577;DHT22;69937;52.420;10.538;2024-03-08T23:49:34;3.30;65.40
80577;DHT22;69937;52.420;10.538;2024-03-08T23:54:34;3.20;65.40
80577;DHT22;69937;52.420;10.538;2024-03-08T23:59:35;3.10;65.70
